Time;durP1;ratioP1;P1;durP2;ratioP2;P2;SDS_P1;SDS_P2;PMS_P1;PMS_P2;Temp;Humidity;BMP_temperature;BMP_pressure;BME280_temperature;BME280_humidity;BME280_pressure;Samples;Min_cycle;Max_cycle;Signal;HPM_P1;HPM_P2
2023/01/09 00:00:35;;;;;;;2.72;2.53;;;;;;;5.18;100.00;96743.06;15288446;19;20470;-50
2023/01/09 00:06:03;;;;;;;2.45;2.25;;;;;;;5.19;100.00;96739.41;15290112;19;20091;-49
2023/01/09 00:11:28;;;;;;;2.60;2.38;;;;;;;5.17;100.00;96736.06;15295241;19;20011;-49
2023/01/09 00:16:56;;;;;;;2.60;2.40;;;;;;;5.14;100.00;96714.22;15291389;19;20014;-49
2023/01/09 00:22:23;;;;;;;2.28;2.10;;;;;;;5.11;100.00;96703.88;15293949;19;20013;-50
2023/01/09 00:27:48;;;;;;;2.50;2.30;;;;;;;5.06;100.00;96678.50;15283551;19;20010;-49
2023/01/09 00:33:12;;;;;;;2.85;2.65;;;;;;;5.03;100.00;96667.34;15287853;19;20011;-49
2023/01/09 00:38:40;;;;;;;2.80;2.60;;;;;;;4.99;100.00;96668.72;15289068;19;20018;-49
2023/01/09 00:44:08;;;;;;;3.63;3.33;;;;;;;4.96;100.00;96669.84;15290001;19;20014;-48
2023/01/09 00:49:42;;;;;;;3.60;3.30;;;;;;;4.98;100.00;96661.69;15286134;19;20471;-50
2023/01/09 00:55:11;;;;;;;3.67;3.38;;;;;;;4.99;100.00;96660.69;15289455;19;20081;-49
2023/01/09 01:00:35;;;;;;;3.53;3.28;;;;;;;5.02;100.00;96657.66;15284986;19;20018;-49
2023/01/09 01:11:41;;;;;;;3.13;2.92;;;;;;;5.11;100.00;96651.34;15289257;19;20074;-52
2023/01/09 01:17:07;;;;;;;3.10;2.90;;;;;;;5.16;100.00;96648.97;15285777;19;20021;-49
2023/01/09 01:22:31;;;;;;;3.40;3.13;;;;;;;5.19;100.00;96645.97;15288401;19;20345;-49
2023/01/09 01:27:59;;;;;;;2.90;2.70;;;;;;;5.22;100.00;96645.63;15284909;19;20010;-50
2023/01/09 01:33:24;;;;;;;3.10;2.80;;;;;;;5.28;100.00;96640.59;15280870;19;20014;-49
2023/01/09 01:38:49;;;;;;;3.40;3.10;;;;;;;5.28;100.00;96640.59;15276539;19;20035;-50
2023/01/09 01:44:43;;;;;;;3.30;3.10;;;;;;;5.28;100.00;96630.78;15286535;19;20038;-50
2023/01/09 01:50:25;;;;;;;3.47;3.17;;;;;;;5.28;100.00;96636.09;15281967;19;20014;-52
2023/01/09 01:56:01;;;;;;;2.85;2.65;;;;;;;5.27;100.00;96630.91;15285145;19;20014;-52
2023/01/09 02:01:28;;;;;;;3.20;2.90;;;;;;;5.25;100.00;96615.91;15286561;19;20467;-49
2023/01/09 02:06:57;;;;;;;3.05;2.83;;;;;;;5.25;100.00;96607.91;15276202;19;20017;-52
2023/01/09 02:12:25;;;;;;;3.10;2.80;;;;;;;5.27;100.00;96604.22;15283870;19;20085;-52
2023/01/09 02:18:28;;;;;;;3.10;2.80;;;;;;;5.27;100.00;96591.72;15281248;19;20034;-54
2023/01/09 02:24:32;;;;;;;3.40;3.10;;;;;;;5.28;100.00;96588.06;15280399;19;20031;-50
2023/01/09 02:30:32;;;;;;;3.10;2.90;;;;;;;5.28;100.00;96579.19;15284617;19;20010;-49
2023/01/09 02:36:18;;;;;;;3.20;2.78;;;;;;;5.28;100.00;96582.72;15282330;19;20022;-50
2023/01/09 02:41:50;;;;;;;3.20;2.90;;;;;;;5.27;100.00;96574.84;15279311;19;20014;-54
2023/01/09 02:47:46;;;;;;;3.22;2.92;;;;;;;5.29;100.00;96571.03;15279980;19;20029;-52
2023/01/09 02:53:48;;;;;;;3.20;2.90;;;;;;;5.29;100.00;96572.84;15282569;19;20085;-52
2023/01/09 02:59:22;;;;;;;;;;;;;;;5.30;100.00;96574.50;15279879;19;20031;-48
2023/01/09 03:04:59;;;;;;;3.45;2.50;;;;;;;5.31;100.00;96555.63;15281989;19;19978;-50
2023/01/09 03:10:27;;;;;;;2.70;2.40;;;;;;;5.33;100.00;96552.81;15278493;19;20017;-49
2023/01/09 03:15:54;;;;;;;2.70;2.50;;;;;;;5.33;100.00;96553.63;15274046;19;20006;-49
2023/01/09 03:21:22;;;;;;;2.60;2.40;;;;;;;5.36;100.00;96552.44;15279523;19;20475;-50
2023/01/09 03:26:47;;;;;;;2.30;2.10;;;;;;;5.36;100.00;96541.75;15280931;19;20018;-50
2023/01/09 03:32:12;;;;;;;2.03;1.92;;;;;;;5.36;100.00;96536.44;15278131;19;20025;-49
2023/01/09 03:37:40;;;;;;;2.35;2.15;;;;;;;5.36;100.00;96537.28;15278379;19;20749;-51
2023/01/09 03:43:04;;;;;;;2.00;1.90;;;;;;;5.39;100.00;96531.59;15272705;19;20013;-48
2023/01/09 03:48:29;;;;;;;2.08;1.90;;;;;;;5.43;100.00;96523.22;15271480;19;20050;-51
2023/01/09 03:53:56;;;;;;;1.80;1.70;;;;;;;5.49;100.00;96512.66;15276748;19;20022;-51
2023/01/09 03:59:21;;;;;;;1.73;1.63;;;;;;;5.50;100.00;96498.28;15274491;19;20024;-49
2023/01/09 04:04:46;;;;;;;1.80;1.70;;;;;;;5.53;100.00;96489.94;15272202;19;20086;-51
2023/01/09 04:10:14;;;;;;;1.77;1.67;;;;;;;5.55;100.00;96487.94;15273512;19;20011;-49
2023/01/09 04:15:38;;;;;;;1.73;1.52;;;;;;;5.58;100.00;96485.91;15272206;19;20011;-52
2023/01/09 04:21:03;;;;;;;1.40;1.25;;;;;;;5.61;100.00;96497.06;15268331;19;20018;-54
2023/01/09 04:26:30;;;;;;;1.30;1.20;;;;;;;5.64;100.00;96490.53;15270435;19;20085;-53
2023/01/09 04:31:55;;;;;;;1.02;1.00;;;;;;;5.73;100.00;96494.81;15276949;19;20007;-52
2023/01/09 04:37:19;;;;;;;1.20;1.10;;;;;;;5.77;100.00;96488.09;15274666;19;20019;-53
2023/01/09 04:42:47;;;;;;;1.00;1.00;;;;;;;5.83;100.00;96487.38;15276391;19;20015;-55
2023/01/09 04:48:12;;;;;;;1.10;1.00;;;;;;;5.88;100.00;96491.34;15280654;19;20025;-50
2023/01/09 04:53:37;;;;;;;0.98;0.90;;;;;;;5.91;100.00;96474.97;15288455;19;20078;-52
2023/01/09 04:59:04;;;;;;;0.75;0.75;;;;;;;5.95;100.00;96465.56;15287218;19;20021;-51
2023/01/09 05:04:29;;;;;;;0.65;0.65;;;;;;;5.97;100.00;96450.19;15291524;19;20069;-51
2023/01/09 05:09:53;;;;;;;0.60;0.60;;;;;;;6.00;100.00;96457.88;15285301;19;20337;-51
2023/01/09 05:15:21;;;;;;;0.73;0.73;;;;;;;6.05;100.00;96476.03;15288911;19;20015;-52
2023/01/09 05:20:45;;;;;;;0.60;0.60;;;;;;;6.09;100.00;96467.47;15283860;19;20412;-54
2023/01/09 05:26:11;;;;;;;0.70;0.68;;;;;;;6.20;100.00;96478.75;15286727;19;20025;-55
2023/01/09 05:31:38;;;;;;;0.80;0.80;;;;;;;6.25;100.00;96481.72;15289697;19;20021;-52
2023/01/09 05:37:03;;;;;;;1.05;0.70;;;;;;;6.24;100.00;96461.34;15280012;19;20415;-51
2023/01/09 05:42:27;;;;;;;0.50;0.50;;;;;;;6.22;100.00;96487.41;15289110;19;20086;-52
2023/01/09 05:47:55;;;;;;;0.80;0.80;;;;;;;6.23;100.00;96486.41;15281980;19;20428;-51
2023/01/09 05:53:19;;;;;;;0.80;0.80;;;;;;;6.28;100.00;96492.88;15277311;19;20372;-53
2023/01/09 05:58:44;;;;;;;0.80;0.80;;;;;;;6.30;100.00;96500.69;15284359;19;20824;-50
2023/01/09 06:04:11;;;;;;;1.02;0.77;;;;;;;6.33;100.00;96489.66;15285873;19;20515;-54
2023/01/09 06:09:36;;;;;;;0.95;0.65;;;;;;;6.33;100.00;96495.00;15283836;19;20081;-54
2023/01/09 06:15:00;;;;;;;0.60;0.60;;;;;;;6.36;100.00;96494.63;15285255;19;20021;-56
2023/01/09 06:20:29;;;;;;;0.52;0.52;;;;;;;6.38;100.00;96497.97;15287086;19;20131;-51
2023/01/09 06:25:53;;;;;;;0.60;0.60;;;;;;;6.42;100.00;96503.78;15272467;19;20014;-53
2023/01/09 06:31:18;;;;;;;0.80;0.60;;;;;;;6.45;100.00;96506.91;15285877;19;20026;-55
2023/01/09 06:36:46;;;;;;;1.27;0.50;;;;;;;6.47;100.00;96512.91;15283718;19;20050;-56
2023/01/09 06:42:10;;;;;;;0.60;0.60;;;;;;;6.51;100.00;96520.59;15283937;19;20018;-55
2023/01/09 06:47:34;;;;;;;0.85;0.75;;;;;;;6.53;100.00;96526.56;15280821;19;20029;-55
2023/01/09 06:53:02;;;;;;;0.88;0.68;;;;;;;6.58;100.00;96541.06;15283783;19;20021;-54
2023/01/09 06:58:27;;;;;;;0.68;0.68;;;;;;;6.60;100.00;96540.88;15269485;19;20017;-54
2023/01/09 07:03:51;;;;;;;0.70;0.55;;;;;;;6.60;100.00;96543.56;15282518;19;20081;-56
2023/01/09 07:09:19;;;;;;;0.73;0.60;;;;;;;6.65;100.00;96551.03;15278069;19;20090;-56
2023/01/09 07:14:43;;;;;;;0.50;0.50;;;;;;;6.69;100.00;96555.03;15281968;19;20514;-56
2023/01/09 07:20:08;;;;;;;0.50;0.50;;;;;;;6.68;100.00;96561.38;15281935;19;20042;-56
2023/01/09 07:25:35;;;;;;;0.63;0.50;;;;;;;6.67;100.00;96560.53;15280194;19;20085;-56
2023/01/09 07:31:01;;;;;;;0.30;0.30;;;;;;;6.81;100.00;96571.44;15273243;19;20410;-55
2023/01/09 07:36:26;;;;;;;0.55;0.50;;;;;;;6.99;100.00;96569.25;15280071;19;20073;-55
2023/01/09 07:41:54;;;;;;;0.10;0.10;;;;;;;7.05;100.00;96576.53;15279802;19;20025;-56
2023/01/09 07:47:19;;;;;;;0.10;0.10;;;;;;;7.09;100.00;96583.19;15277003;19;20037;-56
2023/01/09 07:52:44;;;;;;;0.10;0.10;;;;;;;7.16;100.00;96602.03;15280626;19;20731;-55
2023/01/09 07:58:11;;;;;;;0.10;0.10;;;;;;;7.24;100.00;96617.16;15274242;19;20082;-55
2023/01/09 08:03:37;;;;;;;0.10;0.10;;;;;;;6.88;100.00;96653.50;15276597;19;20086;-56
2023/01/09 08:09:02;;;;;;;0.20;0.20;;;;;;;6.51;100.00;96689.13;15278866;19;20093;-54
2023/01/09 08:14:30;;;;;;;0.25;0.20;;;;;;;6.41;100.00;96684.81;15285333;19;20414;-56
2023/01/09 08:19:54;;;;;;;0.25;0.10;;;;;;;6.37;100.00;96694.22;15342891;19;20022;-52
2023/01/09 08:25:19;;;;;;;0.35;0.20;;;;;;;6.41;100.00;96679.47;15307531;19;20031;-54
2023/01/09 08:30:46;;;;;;;0.55;0.30;;;;;;;6.43;100.00;96696.16;15285308;19;20021;-54
2023/01/09 08:36:12;;;;;;;1.92;0.20;;;;;;;6.40;100.00;96695.69;15286095;19;20021;-55
2023/01/09 08:47:16;;;;;;;0.70;0.30;;;;;;;6.41;100.00;96714.22;15289253;19;20078;-53
2023/01/09 08:52:40;;;;;;;0.10;0.10;;;;;;;6.50;100.00;96741.75;15293480;19;20014;-53
2023/01/09 08:58:05;;;;;;;0.82;0.30;;;;;;;6.62;100.00;96750.22;15289232;19;20046;-52
2023/01/09 09:03:32;;;;;;;0.20;0.20;;;;;;;6.81;100.00;96758.78;15285322;19;20020;-53
2023/01/09 09:09:01;;;;;;;0.68;0.20;;;;;;;6.93;100.00;96743.97;15282846;19;20463;-51
2023/01/09 09:20:09;;;;;;;0.55;0.20;;;;;;;6.94;100.00;96748.31;15284016;19;20671;-54
2023/01/09 09:25:33;;;;;;;0.55;0.28;;;;;;;6.90;100.00;96741.66;15289496;19;20022;-54
2023/01/09 09:30:58;;;;;;;1.60;0.22;;;;;;;6.94;100.00;96759.03;15285777;19;20085;-55
2023/01/09 09:36:25;;;;;;;1.08;0.20;;;;;;;6.91;100.00;96764.72;15278423;19;20105;-54
2023/01/09 09:48:07;;;;;;;1.52;0.20;;;;;;;6.89;100.00;96778.31;15285867;19;20014;-50
2023/01/09 09:53:38;;;;;;;0.87;0.30;;;;;;;6.87;100.00;96796.38;15285103;19;20483;-50
2023/01/09 09:59:08;;;;;;;0.85;0.25;;;;;;;6.94;100.00;96804.53;15283600;19;20019;-54
2023/01/09 10:04:34;;;;;;;0.73;0.40;;;;;;;7.04;100.00;96821.19;15287286;19;20074;-55
2023/01/09 10:10:04;;;;;;;1.52;0.20;;;;;;;7.12;100.00;96808.75;15277960;19;20010;-53
2023/01/09 10:15:42;;;;;;;0.63;0.40;;;;;;;7.04;100.00;96805.13;15279146;19;20025;-53
2023/01/09 10:21:10;;;;;;;1.15;0.35;;;;;;;6.99;100.00;96820.91;15287435;19;20026;-52
2023/01/09 10:26:44;;;;;;;0.82;0.30;;;;;;;6.93;100.00;96818.94;15284724;19;20011;-51
2023/01/09 10:32:28;;;;;;;0.52;0.38;;;;;;;6.95;100.00;96808.88;15283222;19;20074;-51
2023/01/09 10:37:57;;;;;;;0.43;0.20;;;;;;;7.01;100.00;96807.34;15283118;19;20038;-51
2023/01/09 10:43:36;;;;;;;0.75;0.35;;;;;;;7.03;100.00;96806.13;15277016;19;20025;-51
2023/01/09 10:49:10;;;;;;;0.75;0.30;;;;;;;7.02;100.00;96791.09;15278390;19;20034;-56
2023/01/09 10:54:34;;;;;;;0.30;0.20;;;;;;;7.02;100.00;96793.75;15283324;19;20038;-53
2023/01/09 11:00:02;;;;;;;0.20;0.20;;;;;;;7.07;100.00;96780.69;15279047;19;20011;-51
2023/01/09 11:05:31;;;;;;;1.05;0.40;;;;;;;7.03;100.00;96782.03;15283811;19;20022;-51
2023/01/09 11:10:59;;;;;;;1.23;0.40;;;;;;;7.05;100.00;96785.38;15281376;19;20023;-51
2023/01/09 11:16:27;;;;;;;0.85;0.35;;;;;;;7.13;100.00;96789.00;15278593;19;20010;-54
2023/01/09 11:21:53;;;;;;;1.33;0.50;;;;;;;7.22;100.00;96793.28;15281364;19;20230;-50
2023/01/09 11:27:27;;;;;;;0.98;0.40;;;;;;;7.20;100.00;96787.28;15282338;19;20018;-50
2023/01/09 11:32:56;;;;;;;0.90;0.40;;;;;;;7.23;100.00;96789.59;15282685;19;20090;-51
2023/01/09 11:38:21;;;;;;;0.55;0.40;;;;;;;7.25;100.00;96790.22;15279494;19;20014;-51
2023/01/09 11:43:48;;;;;;;0.30;0.30;;;;;;;7.27;100.00;96793.56;15265341;19;20006;-53
2023/01/09 11:49:27;;;;;;;0.50;0.30;;;;;;;7.23;100.00;96795.78;15272306;19;20045;-52
2023/01/09 11:54:56;;;;;;;0.60;0.30;;;;;;;7.34;100.00;96801.72;15296861;19;20021;-54
2023/01/09 12:00:27;;;;;;;0.10;0.10;;;;;;;7.34;100.00;96793.69;15307930;19;20011;-51
2023/01/09 12:06:03;;;;;;;0.17;0.10;;;;;;;7.26;100.00;96805.28;15307191;19;20021;-54
2023/01/09 12:11:33;;;;;;;0.20;0.17;;;;;;;7.17;100.00;96817.09;15306479;19;20018;-51
2023/01/09 12:17:09;;;;;;;0.20;0.10;;;;;;;7.08;100.00;96827.88;15299511;19;20022;-50
2023/01/09 12:22:45;;;;;;;0.30;0.20;;;;;;;7.05;100.00;96835.44;15300789;19;20007;-51
2023/01/09 12:28:28;;;;;;;0.43;0.20;;;;;;;7.01;100.00;96834.13;15303349;19;20007;-52
2023/01/09 12:34:05;;;;;;;0.30;0.20;;;;;;;6.93;100.00;96846.56;15306419;19;20615;-51
2023/01/09 12:39:44;;;;;;;0.57;0.20;;;;;;;6.91;100.00;96856.59;15301954;19;20493;-52
2023/01/09 12:45:25;;;;;;;0.32;0.20;;;;;;;6.85;100.00;96853.78;15308334;19;20019;-54
2023/01/09 12:51:10;;;;;;;;;;;;;;;6.70;100.00;96851.03;15295889;19;20021;-54
2023/01/09 12:56:42;;;;;;;0.20;0.20;;;;;;;6.71;100.00;96858.88;15297554;19;20383;-53
2023/01/09 13:02:19;;;;;;;0.60;0.20;;;;;;;6.72;100.00;96873.94;15305251;19;20055;-53
2023/01/09 13:07:47;;;;;;;0.20;0.20;;;;;;;6.65;100.00;96878.28;15288176;19;20014;-53
2023/01/09 13:13:22;;;;;;;0.15;0.10;;;;;;;6.47;100.00;96897.25;15291147;19;20019;-51
2023/01/09 13:18:51;;;;;;;0.45;0.20;;;;;;;6.42;100.00;96905.81;15284763;19;20320;-50
2023/01/09 13:24:25;;;;;;;0.22;0.20;;;;;;;6.42;100.00;96903.13;15282848;19;20011;-55
2023/01/09 13:30:05;;;;;;;0.57;0.28;;;;;;;6.44;100.00;96919.03;15279149;19;20025;-57
2023/01/09 13:35:29;;;;;;;1.23;0.68;;;;;;;6.46;100.00;96911.69;15289088;19;20439;-54
2023/01/09 13:46:51;;;;;;;0.98;0.50;;;;;;;6.52;100.00;96915.50;15287180;19;20036;-55
2023/01/09 13:52:32;;;;;;;0.70;0.50;;;;;;;6.59;100.00;96916.47;15282928;19;20027;-51
2023/01/09 13:58:13;;;;;;;;;;;;;;;6.55;100.00;96910.63;15281907;19;20544;-51
2023/01/09 14:03:41;;;;;;;0.35;0.25;;;;;;;6.56;100.00;96923.00;15283140;19;19930;-52
2023/01/09 14:09:24;;;;;;;0.75;0.50;;;;;;;6.54;100.00;96924.16;15283210;19;20022;-52
2023/01/09 14:14:50;;;;;;;1.50;0.70;;;;;;;6.48;100.00;96928.38;15286591;19;20380;-54
2023/01/09 14:20:35;;;;;;;0.57;0.30;;;;;;;6.47;100.00;96935.56;15281784;19;20015;-51
2023/01/09 14:26:01;;;;;;;0.98;0.50;;;;;;;6.46;100.00;96941.09;15276804;19;20014;-54
2023/01/09 14:31:37;;;;;;;0.50;0.50;;;;;;;6.44;100.00;96954.63;15278566;19;20010;-53
2023/01/09 14:37:01;;;;;;;0.80;0.50;;;;;;;6.43;100.00;96954.81;15281704;19;20085;-52
2023/01/09 14:42:31;;;;;;;0.60;0.50;;;;;;;6.41;100.00;96963.00;15283144;19;20065;-53
2023/01/09 14:47:58;;;;;;;0.70;0.60;;;;;;;6.37;100.00;96960.84;15286240;19;20043;-49
2023/01/09 14:53:30;;;;;;;0.75;0.50;;;;;;;6.35;100.00;96979.75;15282991;19;20372;-51
2023/01/09 14:58:54;;;;;;;1.13;0.60;;;;;;;6.27;100.00;96979.75;15273630;19;20770;-54
2023/01/09 15:04:30;;;;;;;0.65;0.40;;;;;;;6.22;100.00;96985.63;15276918;19;20033;-50
2023/01/09 15:09:59;;;;;;;0.57;0.30;;;;;;;6.19;100.00;96985.09;15275826;19;20023;-51
2023/01/09 15:15:25;;;;;;;0.68;0.40;;;;;;;6.12;100.00;96991.13;15281825;19;20081;-51
2023/01/09 15:20:51;;;;;;;1.00;0.60;;;;;;;6.07;100.00;96993.47;15281439;19;20037;-55
2023/01/09 15:26:27;;;;;;;1.02;0.75;;;;;;;6.08;100.00;97005.84;15280456;19;20012;-55
2023/01/09 15:31:55;;;;;;;1.35;0.98;;;;;;;6.07;100.00;97001.47;15272702;19;20502;-54
2023/01/09 15:37:27;;;;;;;0.93;0.90;;;;;;;6.04;100.00;97006.34;15272473;19;20010;-50
2023/01/09 15:42:59;;;;;;;0.60;0.60;;;;;;;5.99;100.00;97014.84;15279779;19;20543;-54
2023/01/09 15:48:34;;;;;;;1.02;0.70;;;;;;;5.92;100.00;97013.84;15273856;19;20034;-53
2023/01/09 15:54:00;;;;;;;1.73;0.80;;;;;;;5.83;100.00;97021.84;15272941;19;20018;-50
2023/01/09 15:59:35;;;;;;;0.80;0.70;;;;;;;5.72;100.00;97024.81;15271832;19;20010;-53
2023/01/09 16:05:00;;;;;;;0.60;0.55;;;;;;;5.61;100.00;97035.84;15269638;19;20022;-50
2023/01/09 16:10:32;;;;;;;0.70;0.50;;;;;;;5.52;100.00;97038.50;15262167;19;20404;-55
2023/01/09 16:16:01;;;;;;;0.80;0.50;;;;;;;5.44;100.00;97041.16;15276517;19;20364;-50
2023/01/09 16:21:44;;;;;;;1.00;0.50;;;;;;;5.42;100.00;97059.16;15280924;19;20038;-51
2023/01/09 16:27:24;;;;;;;0.77;0.40;;;;;;;5.40;100.00;97045.13;15277502;19;20098;-49
2023/01/09 16:32:57;;;;;;;1.00;0.50;;;;;;;5.38;100.00;97047.13;15273559;19;20019;-55
2023/01/09 16:38:23;;;;;;;1.25;0.50;;;;;;;5.31;100.00;97056.81;15280769;19;20230;-52
2023/01/09 16:43:48;;;;;;;0.70;0.40;;;;;;;5.27;100.00;97058.09;15287312;19;20033;-51
2023/01/09 16:49:34;;;;;;;0.43;0.43;;;;;;;5.22;100.00;97072.78;15293794;19;20038;-53
2023/01/09 16:54:58;;;;;;;1.23;0.60;;;;;;;5.23;100.00;97087.78;15292229;19;20014;-52
2023/01/09 17:00:26;;;;;;;1.33;0.80;;;;;;;5.25;100.00;97072.44;15292574;19;20014;-56
2023/01/09 17:05:56;;;;;;;1.27;0.70;;;;;;;5.16;100.00;97076.09;15283869;19;20031;-54
2023/01/09 17:11:30;;;;;;;2.50;0.70;;;;;;;5.04;100.00;97078.22;15284334;19;20340;-54
2023/01/09 17:16:56;;;;;;;1.92;0.88;;;;;;;4.98;100.00;97080.69;15288334;19;20018;-54
2023/01/09 17:22:23;;;;;;;1.58;0.90;;;;;;;4.92;100.00;97082.97;15289666;19;20013;-52
2023/01/09 17:33:27;;;;;;;1.98;0.90;;;;;;;4.75;100.00;97095.41;15286280;19;20021;-55
2023/01/09 17:38:55;;;;;;;1.35;0.70;;;;;;;4.63;100.00;97102.84;15278412;19;20028;-54
2023/01/09 17:44:20;;;;;;;1.60;0.98;;;;;;;4.50;100.00;97112.22;15283147;19;20029;-51
2023/01/09 17:49:52;;;;;;;1.05;0.82;;;;;;;4.45;100.00;97129.53;15282022;19;20024;-51
2023/01/09 18:00:46;;;;;;;1.67;0.80;;;;;;;4.15;100.00;97136.13;15311884;19;20042;-79
2023/01/09 18:06:12;;;;;;;1.23;0.80;;;;;;;4.06;100.00;97143.19;15304536;19;20022;-81
2023/01/09 18:11:42;;;;;;;0.88;0.80;;;;;;;4.06;100.00;97150.34;15292955;19;20547;-81
2023/01/09 18:17:07;;;;;;;0.83;0.80;;;;;;;4.01;100.00;97178.28;15304999;19;20007;-79
2023/01/09 18:22:34;;;;;;;1.88;0.95;;;;;;;3.99;100.00;97190.09;15301361;19;20324;-81
2023/01/09 18:28:02;;;;;;;1.25;0.90;;;;;;;3.99;100.00;97193.59;15308422;19;20049;-80
2023/01/09 18:33:27;;;;;;;1.10;0.80;;;;;;;4.05;100.00;97189.47;15333873;19;20049;-81
2023/01/09 18:39:03;;;;;;;1.30;1.00;;;;;;;4.06;100.00;97195.66;15314475;19;20007;-81
2023/01/09 18:44:38;;;;;;;1.27;0.88;;;;;;;4.00;100.00;97203.25;15343361;19;20043;-78
2023/01/09 18:50:03;;;;;;;1.40;1.00;;;;;;;4.01;100.00;97209.41;15297082;19;20053;-79
2023/01/09 18:55:34;;;;;;;0.70;0.70;;;;;;;4.04;100.00;97216.28;15293834;19;20024;-78
2023/01/09 19:01:01;;;;;;;1.27;1.17;;;;;;;4.09;100.00;97225.50;15295271;19;20010;-79
2023/01/09 19:06:26;;;;;;;0.98;0.98;;;;;;;4.11;100.00;97238.69;15291450;19;20264;-81
2023/01/09 19:11:52;;;;;;;2.13;1.92;;;;;;;4.13;100.00;97256.19;15294076;19;20006;-80
2023/01/09 19:17:19;;;;;;;2.67;1.83;;;;;;;4.13;100.00;97266.03;15294817;19;20010;-81
2023/01/09 19:22:45;;;;;;;1.92;1.30;;;;;;;4.16;100.00;97271.06;15291032;19;20028;-79
2023/01/09 19:28:09;;;;;;;1.25;0.50;;;;;;;4.51;100.00;97272.09;15294250;19;20014;-80
2023/01/09 19:33:39;;;;;;;0.45;0.30;;;;;;;4.66;100.00;97276.88;15293244;19;20015;-80
2023/01/09 19:39:08;;;;;;;0.68;0.40;;;;;;;4.70;100.00;97267.59;15294754;19;20021;-79
2023/01/09 19:44:33;;;;;;;0.55;0.40;;;;;;;4.67;100.00;97283.91;15298823;19;20010;-81
2023/01/09 19:50:03;;;;;;;2.00;0.60;;;;;;;4.60;100.00;97297.00;15307935;19;20052;-80
2023/01/09 19:55:34;;;;;;;0.68;0.68;;;;;;;4.54;100.00;97302.97;15313917;19;20015;-82
2023/01/09 20:01:08;;;;;;;1.25;0.80;;;;;;;4.46;100.00;97309.03;15306451;19;20003;-85
2023/01/09 20:06:38;;;;;;;0.80;0.73;;;;;;;4.39;100.00;97314.13;15312445;19;20019;-80
2023/01/09 20:12:04;;;;;;;0.70;0.70;;;;;;;4.28;100.00;97315.19;15290398;19;20015;-79
2023/01/09 20:17:28;;;;;;;0.82;0.60;;;;;;;4.11;100.00;97331.97;15312595;19;20018;-79
2023/01/09 20:22:56;;;;;;;1.08;0.80;;;;;;;3.97;100.00;97352.78;15293486;19;20473;-78
2023/01/09 20:28:22;;;;;;;1.95;1.05;;;;;;;3.92;100.00;97359.53;15299693;19;20409;-78
2023/01/09 20:33:49;;;;;;;2.05;1.00;;;;;;;3.95;100.00;97370.72;15299690;19;20010;-78
2023/01/09 20:39:19;;;;;;;0.90;0.90;;;;;;;3.89;100.00;97371.31;15314088;19;20006;-82
2023/01/09 20:44:44;;;;;;;0.88;0.88;;;;;;;3.77;100.00;97389.28;15323091;19;20011;-82
2023/01/09 20:50:08;;;;;;;1.08;0.85;;;;;;;3.68;100.00;97399.00;15331062;19;20035;-82
2023/01/09 20:55:42;;;;;;;1.10;0.90;;;;;;;3.62;100.00;97404.06;15320762;19;20014;-81
2023/01/09 21:01:07;;;;;;;0.82;0.82;;;;;;;3.55;100.00;97411.78;15328323;19;20028;-77
2023/01/09 21:06:32;;;;;;;2.42;1.00;;;;;;;3.54;100.00;97413.59;15330406;19;20014;-77
2023/01/09 21:11:59;;;;;;;1.08;0.80;;;;;;;3.58;100.00;97419.50;15330508;19;20007;-77
2023/01/09 21:17:24;;;;;;;1.63;0.90;;;;;;;3.52;100.00;97436.00;15323845;19;20018;-77
2023/01/09 21:22:49;;;;;;;1.58;1.02;;;;;;;3.45;100.00;97441.06;15323709;19;20366;-77
2023/01/09 21:28:18;;;;;;;1.20;0.90;;;;;;;3.42;100.00;97441.34;15305720;19;20021;-76
2023/01/09 21:33:44;;;;;;;1.35;0.90;;;;;;;3.42;100.00;97448.50;15303402;19;20018;-77
2023/01/09 21:39:09;;;;;;;1.83;0.90;;;;;;;3.37;100.00;97462.22;15321437;19;20022;-77
2023/01/09 21:50:14;;;;;;;1.00;0.80;;;;;;;3.22;100.00;97481.25;15313868;19;20031;-77
2023/01/09 21:55:45;;;;;;;1.10;0.90;;;;;;;3.16;100.00;97495.13;15310577;19;20020;-78
2023/01/09 22:01:07;;;;;;;1.73;0.80;;;;;;;3.17;100.00;97509.28;15320786;19;20023;-78
2023/01/09 22:06:33;;;;;;;1.90;1.00;;;;;;;3.15;100.00;97511.22;15322732;19;20031;-77
2023/01/09 22:11:57;;;;;;;1.25;0.80;;;;;;;3.16;100.00;97524.41;15323386;19;20015;-78
2023/01/09 22:17:24;;;;;;;2.10;1.00;;;;;;;3.25;100.00;97544.03;15325513;19;20022;-78
2023/01/09 22:22:49;;;;;;;2.25;1.00;;;;;;;3.35;100.00;97547.53;15317648;19;20021;-78
2023/01/09 22:28:15;;;;;;;2.03;0.90;;;;;;;3.42;100.00;97555.00;14791031;19;10000328;-77
2023/01/09 22:33:42;;;;;;;1.67;1.13;;;;;;;3.48;100.00;97557.94;15297860;19;20055;-77
2023/01/09 22:39:07;;;;;;;2.20;1.30;;;;;;;3.55;100.00;97576.88;15296936;19;20334;-77
2023/01/09 22:44:31;;;;;;;1.25;1.10;;;;;;;3.66;100.00;97582.09;15306214;19;20498;-78
2023/01/09 22:49:58;;;;;;;2.45;1.27;;;;;;;3.69;100.00;97605.78;15353161;19;20078;-78
2023/01/09 22:55:24;;;;;;;1.55;1.17;;;;;;;3.73;100.00;97610.81;15316744;19;20030;-78
2023/01/09 23:00:49;;;;;;;2.00;1.30;;;;;;;3.75;100.00;97615.06;15309069;19;21084;-78
2023/01/09 23:06:19;;;;;;;1.77;1.25;;;;;;;3.78;100.00;97633.41;15312071;19;20755;-79
2023/01/09 23:17:20;;;;;;;2.13;1.25;;;;;;;3.80;100.00;97639.44;15314767;19;20041;-79
2023/01/09 23:22:47;;;;;;;2.20;1.30;;;;;;;3.81;100.00;97645.63;15315611;19;20014;-80
2023/01/09 23:28:15;;;;;;;2.83;1.30;;;;;;;3.88;100.00;97654.75;15302791;19;20323;-78
2023/01/09 23:33:40;;;;;;;3.25;1.33;;;;;;;3.97;100.00;97651.25;15296174;19;20354;-79
2023/01/09 23:39:08;;;;;;;3.25;1.38;;;;;;;4.06;100.00;97664.75;15296384;19;20017;-78
2023/01/09 23:44:35;;;;;;;3.78;1.30;;;;;;;4.12;100.00;97666.84;15296301;19;20349;-79
2023/01/09 23:49:59;;;;;;;2.50;1.25;;;;;;;4.20;100.00;97676.81;15297884;19;20007;-81
2023/01/09 23:55:29;;;;;;;2.38;1.30;;;;;;;4.27;100.00;97678.78;15296722;19;20022;-80
